createdAt,value
2018-09-02T00:00:40.399Z,98776.11
2018-09-02T00:03:10.035Z,98776.11
2018-09-02T00:05:39.667Z,98776.61
2018-09-02T00:08:09.381Z,98774.92
2018-09-02T00:10:39.202Z,98777.38
2018-09-02T00:13:08.976Z,98779.02
2018-09-02T00:15:38.597Z,98778.69
2018-09-02T00:18:08.331Z,98769.22
2018-09-02T00:20:38.203Z,98771.86
2018-09-02T00:23:08.051Z,98767.34
2018-09-02T00:25:38.139Z,98762.66
2018-09-02T00:28:08.115Z,98771.77
2018-09-02T00:30:37.850Z,98770.58
2018-09-02T00:33:07.546Z,98761.71
2018-09-02T00:35:37.281Z,98758.02
2018-09-02T00:38:07.399Z,98765.25
2018-09-02T00:40:37.007Z,98764.19
2018-09-02T00:43:06.631Z,98766.47
2018-09-02T00:45:36.652Z,98763.97
2018-09-02T00:48:06.350Z,98762.09
2018-09-02T00:50:36.168Z,98757.77
2018-09-02T00:53:06.111Z,98764.30
2018-09-02T00:55:35.683Z,98758.47
2018-09-02T00:58:06.040Z,98758.36
2018-09-02T01:00:36.099Z,98750.71
2018-09-02T01:03:06.047Z,98756.62
2018-09-02T01:05:36.099Z,98757.94
2018-09-02T01:08:06.117Z,98751.47
2018-09-02T01:10:35.691Z,98755.76
2018-09-02T01:13:05.394Z,98753.38
2018-09-02T01:15:35.135Z,98752.20
2018-09-02T01:18:04.798Z,98753.88
2018-09-02T01:20:34.996Z,98750.75
2018-09-02T01:23:04.862Z,98751.73
2018-09-02T01:25:34.783Z,98748.23
2018-09-02T01:28:04.347Z,98747.28
2018-09-02T01:30:33.975Z,98744.28
2018-09-02T01:33:03.858Z,98748.60
2018-09-02T01:35:34.572Z,98740.81
2018-09-02T01:38:05.338Z,98746.49
2018-09-02T01:40:36.158Z,98742.17
2018-09-02T01:43:06.318Z,98744.22
2018-09-02T01:45:35.998Z,98745.04
2018-09-02T01:48:05.935Z,98741.45
2018-09-02T01:50:35.514Z,98740.32
2018-09-02T01:53:05.134Z,98743.33
2018-09-02T01:55:35.140Z,98736.36
2018-09-02T01:58:04.972Z,98732.90
2018-09-02T02:00:34.654Z,98729.08
2018-09-02T02:03:04.311Z,98725.38
2018-09-02T02:05:34.212Z,98722.25
2018-09-02T02:08:03.808Z,98720.47
2018-09-02T02:10:33.390Z,98713.87
2018-09-02T02:13:03.023Z,98716.02
2018-09-02T02:15:32.647Z,98719.97
2018-09-02T02:18:02.658Z,98711.50
2018-09-02T02:20:32.363Z,98711.50
2018-09-02T02:23:02.342Z,98713.51
2018-09-02T02:25:31.975Z,98707.14
2018-09-02T02:28:01.670Z,98703.05
2018-09-02T02:30:31.386Z,98703.73
2018-09-02T02:33:01.191Z,98706.74
2018-09-02T02:35:31.019Z,98703.11
2018-09-02T02:38:00.595Z,98703.84
2018-09-02T02:40:30.343Z,98701.53
2018-09-02T02:42:59.894Z,98702.52
2018-09-02T02:45:29.588Z,98702.78
2018-09-02T02:47:59.655Z,98700.61
2018-09-02T02:50:29.358Z,98697.83
2018-09-02T02:53:03.655Z,98698.20
2018-09-02T02:55:34.970Z,98682.36
2018-09-02T02:58:04.726Z,98686.59
2018-09-02T03:00:34.353Z,98683.13
2018-09-02T03:03:04.150Z,98683.59
2018-09-02T03:05:33.809Z,98679.49
2018-09-02T03:08:03.842Z,98679.98
2018-09-02T03:10:33.473Z,98680.62
2018-09-02T03:13:03.383Z,98681.58
2018-09-02T03:15:33.005Z,98680.88
2018-09-02T03:18:02.615Z,98670.38
2018-09-02T03:20:32.635Z,98674.98
2018-09-02T03:23:02.464Z,98676.86
2018-09-02T03:25:32.359Z,98676.13
2018-09-02T03:28:01.962Z,98671.80
2018-09-02T03:30:31.765Z,98673.13
2018-09-02T03:33:01.295Z,98676.72
2018-09-02T03:35:31.109Z,98666.11
2018-09-02T03:38:00.679Z,98670.66
2018-09-02T03:40:30.335Z,98663.11
2018-09-02T03:43:00.099Z,98669.07
2018-09-02T03:45:29.742Z,98666.44
2018-09-02T03:47:59.423Z,98664.42
2018-09-02T03:50:28.948Z,98668.38
2018-09-02T03:52:58.638Z,98667.89
2018-09-02T03:55:28.602Z,98664.20
2018-09-02T03:57:58.244Z,98670.47
2018-09-02T04:00:27.907Z,98669.88
2018-09-02T04:02:57.411Z,98662.09
2018-09-02T04:05:27.253Z,98663.67
2018-09-02T04:07:56.815Z,98666.13
2018-09-02T04:10:26.631Z,98663.25
2018-09-02T04:12:56.199Z,98659.43
2018-09-02T04:15:25.960Z,98657.42
2018-09-02T04:17:55.708Z,98654.55
2018-09-02T04:20:34.784Z,98657.45
2018-09-02T04:23:05.680Z,98656.14
2018-09-02T04:25:35.794Z,98651.98
2018-09-02T04:28:05.411Z,98652.94
2018-09-02T04:30:35.043Z,98648.85
2018-09-02T04:33:04.647Z,98657.26
2018-09-02T04:35:34.321Z,98648.03
2018-09-02T04:38:04.062Z,98646.70
2018-09-02T04:40:33.762Z,98652.45
2018-09-02T04:43:03.319Z,98645.98
2018-09-02T04:45:33.084Z,98646.34
2018-09-02T04:48:02.804Z,98650.93
2018-09-02T04:50:32.599Z,98649.38
2018-09-02T04:53:02.328Z,98646.52
2018-09-02T04:55:32.983Z,98649.16
2018-09-02T04:58:02.752Z,98646.19
2018-09-02T05:00:32.462Z,98647.01
2018-09-02T05:03:02.171Z,98646.19
2018-09-02T05:05:32.016Z,98650.14
2018-09-02T05:08:01.582Z,98656.86
2018-09-02T05:10:31.322Z,98657.95
2018-09-02T05:13:01.027Z,98658.09
2018-09-02T05:15:30.822Z,98657.16
2018-09-02T05:18:00.476Z,98653.83
2018-09-02T05:20:30.246Z,98652.16
2018-09-02T05:22:59.983Z,98654.52
2018-09-02T05:25:29.681Z,98651.55
2018-09-02T05:27:59.803Z,98655.15
2018-09-02T05:30:29.434Z,98646.05
2018-09-02T05:32:59.090Z,98648.06
2018-09-02T05:35:29.122Z,98646.41
2018-09-02T05:37:58.690Z,98651.33
2018-09-02T05:40:28.350Z,98646.11
2018-09-02T05:42:58.036Z,98649.34
2018-09-02T05:45:28.086Z,98650.20
2018-09-02T05:47:57.651Z,98652.83
2018-09-02T05:50:27.357Z,98657.05
2018-09-02T05:52:56.984Z,98652.86
2018-09-02T05:55:26.662Z,98654.70
2018-09-02T05:57:56.304Z,98654.52
2018-09-02T06:00:25.979Z,98655.98
2018-09-02T06:02:55.649Z,98657.31
2018-09-02T06:05:26.533Z,98659.12
2018-09-02T06:07:57.649Z,98664.59
2018-09-02T06:10:27.395Z,98663.02
2018-09-02T06:12:57.110Z,98660.98
2018-09-02T06:15:26.804Z,98663.12
2018-09-02T06:17:56.326Z,98666.02
2018-09-02T06:20:26.215Z,98664.93
2018-09-02T06:22:56.251Z,98671.27
2018-09-02T06:25:25.807Z,98667.90
2018-09-02T06:27:55.540Z,98666.13
2018-09-02T06:30:25.071Z,98665.86
2018-09-02T06:32:54.656Z,98664.05
2018-09-02T06:35:24.572Z,98670.02
2018-09-02T06:37:54.291Z,98673.13
2018-09-02T06:40:23.934Z,98668.91
2018-09-02T06:42:53.505Z,98667.66
2018-09-02T06:45:23.327Z,98670.17
2018-09-02T06:47:52.947Z,98673.53
2018-09-02T06:50:22.785Z,98666.45
2018-09-02T06:52:52.853Z,98666.81
2018-09-02T06:55:23.203Z,98667.89
2018-09-02T06:57:53.087Z,98670.89
2018-09-02T07:00:22.818Z,98670.04
2018-09-02T07:02:52.434Z,98674.72
2018-09-02T07:05:22.011Z,98670.97
2018-09-02T07:07:51.611Z,98676.47
2018-09-02T07:10:21.280Z,98671.53
2018-09-02T07:12:51.012Z,98672.84
2018-09-02T07:15:20.594Z,98675.16
2018-09-02T07:17:50.120Z,98672.75
2018-09-02T07:20:19.873Z,98680.66
2018-09-02T07:22:49.871Z,98674.30
2018-09-02T07:25:19.387Z,98670.84
2018-09-02T07:27:49.019Z,98672.36
2018-09-02T07:30:18.538Z,98672.09
2018-09-02T07:32:48.083Z,98673.16
2018-09-02T07:35:17.608Z,98674.70
2018-09-02T07:37:47.295Z,98679.22
2018-09-02T07:40:17.000Z,98670.35
2018-09-02T07:42:47.023Z,98678.49
2018-09-02T07:45:17.465Z,98674.86
2018-09-02T07:47:47.273Z,98669.92
2018-09-02T07:50:16.830Z,98670.34
2018-09-02T07:52:46.438Z,98672.48
2018-09-02T07:55:15.983Z,98674.56
2018-09-02T07:57:45.534Z,98669.69
2018-09-02T08:00:15.607Z,98674.60
2018-09-02T08:02:45.310Z,98676.45
2018-09-02T08:05:15.171Z,98673.94
2018-09-02T08:07:44.878Z,98672.85
2018-09-02T08:10:14.530Z,98670.78
2018-09-02T08:12:44.278Z,98672.82
2018-09-02T08:15:13.822Z,98676.78
2018-09-02T08:17:43.314Z,98673.55
2018-09-02T08:20:12.888Z,98675.59
2018-09-02T08:22:42.528Z,98681.20
2018-09-02T08:25:12.091Z,98679.61
2018-09-02T08:27:41.701Z,98678.03
2018-09-02T08:30:11.332Z,98676.58
2018-09-02T08:32:41.202Z,98680.70
2018-09-02T08:35:10.953Z,98679.70
2018-09-02T08:37:40.687Z,98674.62
2018-09-02T08:40:10.571Z,98673.39
2018-09-02T08:42:40.167Z,98673.13
2018-09-02T08:45:10.555Z,98674.80
2018-09-02T08:47:40.217Z,98668.61
2018-09-02T08:50:09.831Z,98671.38
2018-09-02T08:52:39.555Z,98675.80
2018-09-02T08:55:09.371Z,98677.25
2018-09-02T08:57:38.915Z,98673.70
2018-09-02T09:00:10.133Z,98676.56
2018-09-02T09:02:39.655Z,98674.48
2018-09-02T09:05:09.603Z,98680.25
2018-09-02T09:07:39.341Z,98680.62
2018-09-02T09:10:08.987Z,98678.90
2018-09-02T09:12:38.539Z,98681.41
2018-09-02T09:15:08.486Z,98679.09
2018-09-02T09:17:38.057Z,98680.64
2018-09-02T09:20:08.844Z,98678.00
2018-09-02T09:22:39.403Z,98678.83
2018-09-02T09:25:10.858Z,98678.55
2018-09-02T09:27:41.032Z,98667.73
2018-09-02T09:30:11.278Z,98669.41
2018-09-02T09:32:41.115Z,98663.63
2018-09-02T09:35:10.716Z,98658.77
2018-09-02T09:37:40.309Z,98655.59
2018-09-02T09:40:09.883Z,98652.91
2018-09-02T09:42:39.435Z,98642.75
2018-09-02T09:45:09.065Z,98646.06
2018-09-02T09:47:38.685Z,98645.02
2018-09-02T09:50:08.698Z,98648.97
2018-09-02T09:52:38.284Z,98650.66
2018-09-02T09:55:08.106Z,98651.16
2018-09-02T09:57:37.755Z,98648.75
2018-09-02T10:00:08.017Z,98644.43
2018-09-02T10:02:37.873Z,98642.34
2018-09-02T10:05:07.761Z,98640.38
2018-09-02T10:07:37.523Z,98644.92
2018-09-02T10:10:07.663Z,98635.69
2018-09-02T10:12:37.465Z,98640.11
2018-09-02T10:15:07.121Z,98641.79
2018-09-02T10:17:36.706Z,98648.52
2018-09-02T10:20:06.379Z,98639.95
2018-09-02T10:22:35.987Z,98635.86
2018-09-02T10:25:06.339Z,98641.22
2018-09-02T10:27:35.970Z,98645.81
2018-09-02T10:30:05.843Z,98639.13
2018-09-02T10:32:35.651Z,98635.16
2018-09-02T10:35:05.723Z,98635.85
2018-09-02T10:37:35.410Z,98636.08
2018-09-02T10:40:06.072Z,98638.77
2018-09-02T10:42:35.891Z,98633.48
2018-09-02T10:45:06.499Z,98636.21
2018-09-02T10:47:36.716Z,98628.92
2018-09-02T10:50:07.746Z,98621.46
2018-09-02T10:52:37.634Z,98616.88
2018-09-02T10:55:07.760Z,98607.35
2018-09-02T10:57:37.502Z,98617.64
2018-09-02T11:00:09.756Z,98621.27
2018-09-02T11:02:39.842Z,98619.05
2018-09-02T11:05:09.971Z,98618.05
2018-09-02T11:07:39.719Z,98614.31
2018-09-02T11:10:10.116Z,98609.56
2018-09-02T11:12:39.732Z,98608.61
2018-09-02T11:15:09.782Z,98609.75
2018-09-02T11:17:39.455Z,98595.14
2018-09-02T11:20:10.201Z,98598.14
2018-09-02T11:22:39.991Z,98602.09
2018-09-02T11:25:09.634Z,98602.28
2018-09-02T11:27:39.267Z,98601.09
2018-09-02T11:30:09.248Z,98606.14
2018-09-02T11:32:38.893Z,98598.45
2018-09-02T11:35:08.656Z,98594.91
2018-09-02T11:37:38.400Z,98599.09
2018-09-02T11:40:09.094Z,98594.17
2018-09-02T11:42:38.830Z,98592.03
2018-09-02T11:45:08.893Z,98597.78
2018-09-02T11:47:38.645Z,98596.46
2018-09-02T11:50:08.403Z,98594.09
2018-09-02T11:52:38.140Z,98592.45
2018-09-02T11:55:08.114Z,98592.44
2018-09-02T11:57:37.782Z,98594.37
2018-09-02T12:00:08.187Z,98593.05
2018-09-02T12:02:38.032Z,98599.88
2018-09-02T12:05:07.829Z,98597.63
2018-09-02T12:07:37.453Z,98594.63
2018-09-02T12:10:07.170Z,98592.84
2018-09-02T12:12:36.726Z,98586.09
2018-09-02T12:15:06.364Z,98587.50
2018-09-02T12:17:35.988Z,98586.30
2018-09-02T12:20:05.750Z,98604.66
2018-09-02T12:22:35.479Z,98600.01
2018-09-02T12:25:06.178Z,98595.50
2018-09-02T12:27:35.935Z,98598.97
2018-09-02T12:30:05.727Z,98593.22
2018-09-02T12:32:35.357Z,98590.99
2018-09-02T12:35:05.057Z,98588.81
2018-09-02T12:37:35.367Z,98585.16
2018-09-02T12:40:04.951Z,98589.45
2018-09-02T12:42:34.668Z,98586.13
2018-09-02T12:45:04.447Z,98586.39
2018-09-02T12:47:34.091Z,98590.77
2018-09-02T12:50:03.868Z,98592.45
2018-09-02T12:52:33.755Z,98594.18
2018-09-02T12:55:03.880Z,98583.84
2018-09-02T12:57:33.775Z,98588.71
2018-09-02T13:00:03.411Z,98582.52
2018-09-02T13:02:33.206Z,98579.25
2018-09-02T13:05:03.734Z,98578.29
2018-09-02T13:07:33.339Z,98574.05
2018-09-02T13:10:03.039Z,98576.97
2018-09-02T13:12:32.594Z,98575.02
2018-09-02T13:15:02.503Z,98572.70
2018-09-02T13:17:32.466Z,98578.43
2018-09-02T13:20:02.062Z,98572.79
2018-09-02T13:22:31.923Z,98566.60
2018-09-02T13:25:01.519Z,98563.41
2018-09-02T13:27:31.093Z,98562.91
2018-09-02T13:30:00.688Z,98560.91
2018-09-02T13:32:30.309Z,98560.91
2018-09-02T13:35:00.081Z,98557.03
2018-09-02T13:37:29.855Z,98555.13
2018-09-02T13:39:59.495Z,98558.20
2018-09-02T13:42:29.159Z,98556.11
2018-09-02T13:44:58.780Z,98553.77
2018-09-02T13:47:29.421Z,98555.39
2018-09-02T13:49:58.986Z,98559.81
2018-09-02T13:52:28.513Z,98550.33
2018-09-02T13:54:58.070Z,98554.09
2018-09-02T13:57:47.854Z,98544.29
2018-09-02T14:00:17.706Z,98546.19
2018-09-02T14:02:47.506Z,98545.28
2018-09-02T14:05:17.919Z,98544.65
2018-09-02T14:07:47.873Z,98545.75
2018-09-02T14:10:17.640Z,98545.89
2018-09-02T14:12:47.535Z,98548.20
2018-09-02T14:15:17.100Z,98552.77
2018-09-02T14:17:46.786Z,98545.63
2018-09-02T14:20:16.515Z,98548.34
2018-09-02T14:22:46.136Z,98543.34
2018-09-02T14:25:15.906Z,98551.81
2018-09-02T14:27:45.438Z,98551.81
2018-09-02T14:30:15.000Z,98555.83
2018-09-02T14:32:44.847Z,98552.00
2018-09-02T14:35:14.986Z,98548.45
2018-09-02T14:37:44.555Z,98548.67
2018-09-02T14:40:14.137Z,98549.22
2018-09-02T14:42:43.736Z,98546.81
2018-09-02T14:45:13.552Z,98542.44
2018-09-02T14:47:43.140Z,98542.91
2018-09-02T14:50:12.722Z,98543.13
2018-09-02T14:52:42.300Z,98537.90
2018-09-02T14:55:12.016Z,98533.80
2018-09-02T14:57:41.644Z,98525.75
2018-09-02T15:00:11.603Z,98529.93
2018-09-02T15:02:41.161Z,98523.88
2018-09-02T15:05:11.346Z,98524.31
2018-09-02T15:07:40.883Z,98536.52
2018-09-02T15:10:10.796Z,98531.10
2018-09-02T15:12:40.482Z,98530.91
2018-09-02T15:15:10.397Z,98535.02
2018-09-02T15:17:39.994Z,98534.30
2018-09-02T15:20:09.572Z,98533.89
2018-09-02T15:22:39.193Z,98536.80
2018-09-02T15:25:08.738Z,98524.78
2018-09-02T15:27:38.527Z,98526.95
2018-09-02T15:30:08.260Z,98529.64
2018-09-02T15:32:37.829Z,98527.69
2018-09-02T15:35:07.455Z,98537.36
2018-09-02T15:37:37.083Z,98530.48
2018-09-02T15:40:07.195Z,98533.87
2018-09-02T15:42:36.772Z,98526.05
2018-09-02T15:45:06.707Z,98523.54
2018-09-02T15:47:36.834Z,98519.78
2018-09-02T15:50:07.663Z,98514.77
2018-09-02T15:52:37.570Z,98511.84
2018-09-02T15:55:08.078Z,98511.78
2018-09-02T15:57:37.679Z,98511.52
2018-09-02T16:00:08.605Z,98507.16
2018-09-02T16:02:38.679Z,98511.39
2018-09-02T16:05:08.655Z,98504.70
2018-09-02T16:07:38.251Z,98509.63
2018-09-02T16:10:07.871Z,98512.98
2018-09-02T16:12:37.469Z,98508.33
2018-09-02T16:15:07.590Z,98512.33
2018-09-02T16:17:37.194Z,98510.33
2018-09-02T16:20:07.829Z,98511.57
2018-09-02T16:22:37.568Z,98508.38
2018-09-02T16:25:07.385Z,98503.46
2018-09-02T16:27:37.249Z,98506.10
2018-09-02T16:30:08.095Z,98503.52
2018-09-02T16:32:37.701Z,98506.84
2018-09-02T16:35:07.351Z,98503.74
2018-09-02T16:37:36.999Z,98509.63
2018-09-02T16:40:06.688Z,98505.61
2018-09-02T16:42:36.315Z,98503.03
2018-09-02T16:45:06.091Z,98503.24
2018-09-02T16:47:35.633Z,98503.03
2018-09-02T16:50:05.390Z,98496.16
2018-09-02T16:52:34.983Z,98496.52
2018-09-02T16:55:04.671Z,98492.92
2018-09-02T16:57:34.212Z,98488.52
2018-09-02T17:00:04.189Z,98498.80
2018-09-02T17:02:33.748Z,98494.72
2018-09-02T17:05:05.993Z,98488.12
2018-09-02T17:07:35.619Z,98491.25
2018-09-02T17:10:05.851Z,98481.30
2018-09-02T17:12:35.727Z,98472.56
2018-09-02T17:15:06.136Z,98473.24
2018-09-02T17:17:35.672Z,98480.48
2018-09-02T17:20:05.552Z,98481.17
2018-09-02T17:22:35.133Z,98483.59
2018-09-02T17:25:04.816Z,98483.59
2018-09-02T17:27:34.508Z,98481.17
2018-09-02T17:30:04.491Z,98476.11
2018-09-02T17:32:34.279Z,98478.80
2018-09-02T17:35:03.949Z,98476.87
2018-09-02T17:37:33.851Z,98479.30
2018-09-02T17:40:03.799Z,98482.16
2018-09-02T17:42:33.513Z,98476.73
2018-09-02T17:45:03.381Z,98471.92
2018-09-02T17:47:32.946Z,98467.64
2018-09-02T17:50:02.602Z,98467.14
2018-09-02T17:52:32.237Z,98465.61
2018-09-02T17:55:02.158Z,98466.73
2018-09-02T17:57:32.166Z,98463.96
2018-09-02T18:00:02.067Z,98469.92
2018-09-02T18:02:31.665Z,98470.74
2018-09-02T18:05:01.556Z,98475.20
2018-09-02T18:07:31.343Z,98474.16
2018-09-02T18:10:01.077Z,98475.97
2018-09-02T18:12:30.699Z,98471.16
2018-09-02T18:15:00.282Z,98482.08
2018-09-02T18:17:30.059Z,98478.11
2018-09-02T18:19:59.799Z,98477.89
2018-09-02T18:22:29.496Z,98478.17
2018-09-02T18:24:59.135Z,98475.07
2018-09-02T18:27:31.179Z,98469.30
2018-09-02T18:30:01.235Z,98468.80
2018-09-02T18:32:31.982Z,98464.38
2018-09-02T18:35:02.323Z,98470.48
2018-09-02T18:37:31.960Z,98475.26
2018-09-02T18:40:02.076Z,98478.75
2018-09-02T18:42:31.728Z,98480.53
2018-09-02T18:45:01.381Z,98489.31
2018-09-02T18:47:31.210Z,98490.13
2018-09-02T18:50:01.195Z,98491.95
2018-09-02T18:52:31.215Z,98487.91
2018-09-02T18:55:01.082Z,98487.41
2018-09-02T18:57:31.061Z,98485.77
2018-09-02T19:00:00.668Z,98496.18
2018-09-02T19:02:30.670Z,98498.81
2018-09-02T19:05:00.725Z,98497.50
2018-09-02T19:07:30.384Z,98494.50
2018-09-02T19:10:00.111Z,98494.50
2018-09-02T19:12:30.035Z,98494.00
2018-09-02T19:15:00.049Z,98489.22
2018-09-02T19:17:30.139Z,98491.50
2018-09-02T19:19:59.815Z,98491.17
2018-09-02T19:22:29.458Z,98503.38
2018-09-02T19:24:59.297Z,98495.46
2018-09-02T19:27:28.964Z,98482.22
2018-09-02T19:29:58.777Z,98490.73
2018-09-02T19:32:28.772Z,98479.72
2018-09-02T19:34:58.630Z,98481.64
2018-09-02T19:37:28.527Z,98478.59
2018-09-02T19:39:58.387Z,98483.55
2018-09-02T19:42:28.419Z,98479.41
2018-09-02T19:44:58.521Z,98479.77
2018-09-02T19:47:29.006Z,98479.09
2018-09-02T19:49:58.812Z,98476.09
2018-09-02T19:52:28.457Z,98479.22
2018-09-02T19:54:58.159Z,98474.14
2018-09-02T19:57:27.913Z,98473.53
2018-09-02T19:59:57.608Z,98472.22
2018-09-02T20:02:27.297Z,98474.00
2018-09-02T20:04:57.015Z,98466.94
2018-09-02T20:07:26.591Z,98463.31
2018-09-02T20:09:56.301Z,98460.67
2018-09-02T20:12:25.974Z,98463.03
2018-09-02T20:14:55.809Z,98459.44
2018-09-02T20:17:25.476Z,98457.75
2018-09-02T20:19:55.149Z,98451.52
2018-09-02T20:22:24.899Z,98446.92
2018-09-02T20:24:54.793Z,98443.11
2018-09-02T20:27:26.260Z,98443.83
2018-09-02T20:29:55.969Z,98441.65
2018-09-02T20:32:25.677Z,98446.92
2018-09-02T20:34:55.323Z,98446.79
2018-09-02T20:37:24.930Z,98448.88
2018-09-02T20:39:54.654Z,98449.24
2018-09-02T20:42:24.414Z,98448.88
2018-09-02T20:44:54.048Z,98454.52
2018-09-02T20:47:23.635Z,98452.56
2018-09-02T20:49:53.286Z,98448.47
2018-09-02T20:52:22.986Z,98452.42
2018-09-02T20:54:52.574Z,98447.70
2018-09-02T20:57:22.148Z,98442.16
2018-09-02T20:59:51.910Z,98444.30
2018-09-02T21:02:21.683Z,98447.48
2018-09-02T21:04:51.747Z,98447.63
2018-09-02T21:07:21.579Z,98435.44
2018-09-02T21:09:51.383Z,98430.98
2018-09-02T21:12:21.048Z,98433.12
2018-09-02T21:14:50.882Z,98432.35
2018-09-02T21:17:20.665Z,98438.89
2018-09-02T21:19:50.373Z,98434.66
2018-09-02T21:22:20.013Z,98438.34
2018-09-02T21:24:49.674Z,98442.98
2018-09-02T21:27:19.304Z,98439.39
2018-09-02T21:29:49.091Z,98442.02
2018-09-02T21:32:18.820Z,98440.21
2018-09-02T21:34:48.528Z,98442.71
2018-09-02T21:37:18.082Z,98439.72
2018-09-02T21:39:48.059Z,98438.75
2018-09-02T21:42:18.144Z,98439.11
2018-09-02T21:44:47.855Z,98436.47
2018-09-02T21:47:17.903Z,98437.44
2018-09-02T21:49:47.495Z,98435.30
2018-09-02T21:52:17.210Z,98430.98
2018-09-02T21:54:46.853Z,98425.34
2018-09-02T21:57:16.608Z,98426.66
2018-09-02T21:59:46.164Z,98420.21
2018-09-02T22:02:15.826Z,98423.20
2018-09-02T22:04:45.583Z,98424.88
2018-09-02T22:07:15.249Z,98427.16
2018-09-02T22:09:44.826Z,98424.03
2018-09-02T22:12:14.638Z,98420.56
2018-09-02T22:14:44.347Z,98428.12
2018-09-02T22:17:14.211Z,98421.53
2018-09-02T22:19:43.895Z,98417.11
2018-09-02T22:22:13.725Z,98414.61
2018-09-02T22:24:43.623Z,98417.84
2018-09-02T22:27:13.437Z,98419.94
2018-09-02T22:29:43.411Z,98415.58
2018-09-02T22:32:13.002Z,98412.80
2018-09-02T22:34:42.590Z,98415.16
2018-09-02T22:37:12.367Z,98411.20
2018-09-02T22:39:41.974Z,98403.76
2018-09-02T22:42:11.588Z,98405.08
2018-09-02T22:44:41.168Z,98402.30
2018-09-02T22:47:10.886Z,98400.84
2018-09-02T22:49:40.505Z,98399.39
2018-09-02T22:52:10.078Z,98389.83
2018-09-02T22:54:39.803Z,98388.38
2018-09-02T22:57:09.500Z,98375.46
2018-09-02T22:59:39.119Z,98375.79
2018-09-02T23:02:09.214Z,98375.79
2018-09-02T23:04:38.959Z,98373.87
2018-09-02T23:07:08.659Z,98371.09
2018-09-02T23:09:38.375Z,98363.86
2018-09-02T23:12:08.266Z,98352.81
2018-09-02T23:14:37.943Z,98345.75
2018-09-02T23:17:07.880Z,98345.75
2018-09-02T23:19:37.446Z,98342.76
2018-09-02T23:22:07.470Z,98331.39
2018-09-02T23:24:37.114Z,98326.11
2018-09-02T23:27:07.320Z,98315.20
2018-09-02T23:29:36.879Z,98310.22
2018-09-02T23:32:06.482Z,98313.48
2018-09-02T23:34:36.191Z,98303.91
2018-09-02T23:37:06.087Z,98299.95
2018-09-02T23:39:35.803Z,98290.86
2018-09-02T23:42:05.531Z,98292.81
2018-09-02T23:44:35.523Z,98296.41
2018-09-02T23:47:05.252Z,98289.96
2018-09-02T23:49:34.959Z,98288.78
2018-09-02T23:52:05.081Z,98284.61
2018-09-02T23:54:34.851Z,98283.30
2018-09-02T23:57:04.491Z,98273.39
2018-09-02T23:59:34.091Z,98272.10
